sensor_id;sensor_type;location;lat;lon;timestamp;pressure;altitude;pressure_sealevel;temperature;humidity
50682;BME280;36779;52.168;20.878;2023-07-13T00:01:33;100053.70;;;17.87;59.41
50682;BME280;36779;52.168;20.878;2023-07-13T00:04:06;100049.70;;;17.83;59.41
50682;BME280;36779;52.168;20.878;2023-07-13T00:06:38;100051.84;;;17.81;59.60
50682;BME280;36779;52.168;20.878;2023-07-13T00:09:22;100049.73;;;17.76;59.54
50682;BME280;36779;52.168;20.878;2023-07-13T00:11:59;100050.21;;;17.71;59.68
50682;BME280;36779;52.168;20.878;2023-07-13T00:14:32;100050.88;;;17.69;59.76
50682;BME280;36779;52.168;20.878;2023-07-13T00:17:19;100052.38;;;17.70;60.04
50682;BME280;36779;52.168;20.878;2023-07-13T00:19:54;100047.98;;;17.80;60.38
50682;BME280;36779;52.168;20.878;2023-07-13T00:22:30;100042.68;;;17.91;60.55
50682;BME280;36779;52.168;20.878;2023-07-13T00:25:03;100045.75;;;17.91;60.28
50682;BME280;36779;52.168;20.878;2023-07-13T00:27:35;100045.78;;;17.87;60.06
50682;BME280;36779;52.168;20.878;2023-07-13T00:30:10;100049.19;;;17.91;60.47
50682;BME280;36779;52.168;20.878;2023-07-13T00:33:05;100046.94;;;17.99;60.56
50682;BME280;36779;52.168;20.878;2023-07-13T00:35:52;100046.27;;;17.95;60.22
50682;BME280;36779;52.168;20.878;2023-07-13T00:38:27;100045.23;;;17.88;60.34
50682;BME280;36779;52.168;20.878;2023-07-13T00:41:02;100046.48;;;17.82;60.10
50682;BME280;36779;52.168;20.878;2023-07-13T00:43:39;100043.40;;;17.76;60.27
50682;BME280;36779;52.168;20.878;2023-07-13T00:46:33;100040.66;;;17.73;60.33
50682;BME280;36779;52.168;20.878;2023-07-13T00:49:12;100031.44;;;17.70;60.51
50682;BME280;36779;52.168;20.878;2023-07-13T00:54:53;100030.52;;;17.64;60.57
50682;BME280;36779;52.168;20.878;2023-07-13T00:57:29;100029.36;;;17.69;60.53
50682;BME280;36779;52.168;20.878;2023-07-13T01:00:05;100031.54;;;17.66;60.53
50682;BME280;36779;52.168;20.878;2023-07-13T01:02:41;100035.67;;;17.60;60.70
50682;BME280;36779;52.168;20.878;2023-07-13T01:05:29;100036.77;;;17.58;60.72
50682;BME280;36779;52.168;20.878;2023-07-13T01:08:04;100041.14;;;17.56;60.54
50682;BME280;36779;52.168;20.878;2023-07-13T01:10:40;100041.86;;;17.54;60.65
50682;BME280;36779;52.168;20.878;2023-07-13T01:13:24;100044.31;;;17.53;60.75
50682;BME280;36779;52.168;20.878;2023-07-13T01:16:01;100048.79;;;17.53;60.93
50682;BME280;36779;52.168;20.878;2023-07-13T01:18:35;100049.52;;;17.54;61.01
50682;BME280;36779;52.168;20.878;2023-07-13T01:21:09;100046.90;;;17.55;60.99
50682;BME280;36779;52.168;20.878;2023-07-13T01:23:53;100044.45;;;17.54;60.99
50682;BME280;36779;52.168;20.878;2023-07-13T01:26:29;100045.96;;;17.54;61.02
50682;BME280;36779;52.168;20.878;2023-07-13T01:29:03;100047.79;;;17.54;61.24
50682;BME280;36779;52.168;20.878;2023-07-13T01:31:35;100050.60;;;17.54;61.09
50682;BME280;36779;52.168;20.878;2023-07-13T01:34:07;100060.16;;;17.55;61.20
50682;BME280;36779;52.168;20.878;2023-07-13T01:36:50;100061.96;;;17.54;61.23
50682;BME280;36779;52.168;20.878;2023-07-13T01:39:56;100070.63;;;17.53;61.21
50682;BME280;36779;52.168;20.878;2023-07-13T01:42:34;100072.83;;;17.61;61.40
50682;BME280;36779;52.168;20.878;2023-07-13T01:45:07;100063.23;;;17.73;61.76
50682;BME280;36779;52.168;20.878;2023-07-13T01:47:40;100065.54;;;17.77;61.41
50682;BME280;36779;52.168;20.878;2023-07-13T01:50:27;100067.64;;;17.70;61.29
50682;BME280;36779;52.168;20.878;2023-07-13T01:53:01;100069.17;;;17.63;61.20
50682;BME280;36779;52.168;20.878;2023-07-13T01:55:37;100062.43;;;17.59;61.41
50682;BME280;36779;52.168;20.878;2023-07-13T01:58:09;100060.85;;;17.60;61.50
50682;BME280;36779;52.168;20.878;2023-07-13T02:00:53;100059.98;;;17.60;61.53
50682;BME280;36779;52.168;20.878;2023-07-13T02:03:26;100063.73;;;17.57;61.59
50682;BME280;36779;52.168;20.878;2023-07-13T02:06:03;100067.35;;;17.54;61.55
50682;BME280;36779;52.168;20.878;2023-07-13T02:08:37;100069.58;;;17.56;61.85
50682;BME280;36779;52.168;20.878;2023-07-13T02:11:25;100070.76;;;17.59;61.58
50682;BME280;36779;52.168;20.878;2023-07-13T02:14:04;100079.45;;;17.56;61.57
50682;BME280;36779;52.168;20.878;2023-07-13T02:16:36;100075.16;;;17.52;61.61
50682;BME280;36779;52.168;20.878;2023-07-13T02:19:23;100076.72;;;17.47;61.57
50682;BME280;36779;52.168;20.878;2023-07-13T02:22:02;100078.05;;;17.44;61.65
50682;BME280;36779;52.168;20.878;2023-07-13T02:24:53;100077.00;;;17.48;61.88
50682;BME280;36779;52.168;20.878;2023-07-13T02:27:28;100078.11;;;17.56;62.03
50682;BME280;36779;52.168;20.878;2023-07-13T02:30:02;100083.93;;;17.61;62.16
50682;BME280;36779;52.168;20.878;2023-07-13T02:32:37;100085.67;;;17.72;62.34
50682;BME280;36779;52.168;20.878;2023-07-13T02:35:10;100082.60;;;17.82;62.44
50682;BME280;36779;52.168;20.878;2023-07-13T02:37:42;100082.39;;;17.84;62.15
50682;BME280;36779;52.168;20.878;2023-07-13T02:40:29;100082.45;;;17.78;62.07
50682;BME280;36779;52.168;20.878;2023-07-13T02:43:04;100078.16;;;17.70;62.08
50682;BME280;36779;52.168;20.878;2023-07-13T02:45:36;100074.84;;;17.63;61.97
50682;BME280;36779;52.168;20.878;2023-07-13T02:48:10;100073.17;;;17.57;61.81
50682;BME280;36779;52.168;20.878;2023-07-13T02:50:54;100071.38;;;17.53;61.98
50682;BME280;36779;52.168;20.878;2023-07-13T02:53:27;100069.52;;;17.50;61.98
50682;BME280;36779;52.168;20.878;2023-07-13T02:55:59;100073.44;;;17.46;61.81
50682;BME280;36779;52.168;20.878;2023-07-13T02:58:31;100074.58;;;17.42;61.98
50682;BME280;36779;52.168;20.878;2023-07-13T03:01:07;100072.64;;;17.39;62.07
50682;BME280;36779;52.168;20.878;2023-07-13T03:03:43;100071.16;;;17.39;62.21
50682;BME280;36779;52.168;20.878;2023-07-13T03:06:22;100073.22;;;17.49;62.58
50682;BME280;36779;52.168;20.878;2023-07-13T03:09:00;100077.27;;;17.61;62.74
50682;BME280;36779;52.168;20.878;2023-07-13T03:11:33;100080.93;;;17.71;62.71
50682;BME280;36779;52.168;20.878;2023-07-13T03:14:11;100079.53;;;17.71;62.53
50682;BME280;36779;52.168;20.878;2023-07-13T03:16:48;100080.70;;;17.62;62.33
50682;BME280;36779;52.168;20.878;2023-07-13T03:19:26;100075.02;;;17.62;62.50
50682;BME280;36779;52.168;20.878;2023-07-13T03:22:03;100065.75;;;17.57;62.37
50682;BME280;36779;52.168;20.878;2023-07-13T03:24:38;100067.11;;;17.52;62.29
50682;BME280;36779;52.168;20.878;2023-07-13T03:27:12;100062.91;;;17.46;62.29
50682;BME280;36779;52.168;20.878;2023-07-13T03:29:48;100056.35;;;17.41;62.30
50682;BME280;36779;52.168;20.878;2023-07-13T03:32:22;100056.88;;;17.41;62.56
50682;BME280;36779;52.168;20.878;2023-07-13T03:34:54;100058.59;;;17.50;62.58
50682;BME280;36779;52.168;20.878;2023-07-13T03:37:29;100058.54;;;17.55;62.66
50682;BME280;36779;52.168;20.878;2023-07-13T03:40:01;100051.09;;;17.56;62.72
50682;BME280;36779;52.168;20.878;2023-07-13T03:42:34;100048.30;;;17.56;62.57
50682;BME280;36779;52.168;20.878;2023-07-13T03:45:08;100045.89;;;17.56;62.53
50682;BME280;36779;52.168;20.878;2023-07-13T03:47:40;100053.49;;;17.55;62.48
50682;BME280;36779;52.168;20.878;2023-07-13T03:50:13;100054.52;;;17.57;62.72
50682;BME280;36779;52.168;20.878;2023-07-13T03:52:54;100052.48;;;17.62;62.76
50682;BME280;36779;52.168;20.878;2023-07-13T03:55:29;100050.33;;;17.66;62.70
50682;BME280;36779;52.168;20.878;2023-07-13T03:58:26;100054.73;;;17.69;62.69
50682;BME280;36779;52.168;20.878;2023-07-13T04:01:03;100053.14;;;17.73;62.77
50682;BME280;36779;52.168;20.878;2023-07-13T04:03:38;100052.55;;;17.79;62.87
50682;BME280;36779;52.168;20.878;2023-07-13T04:06:15;100056.33;;;17.86;62.80
50682;BME280;36779;52.168;20.878;2023-07-13T04:08:55;100060.79;;;17.94;62.89
50682;BME280;36779;52.168;20.878;2023-07-13T04:11:32;100064.45;;;18.05;63.07
50682;BME280;36779;52.168;20.878;2023-07-13T04:14:07;100065.68;;;18.38;63.71
50682;BME280;36779;52.168;20.878;2023-07-13T04:16:39;100066.80;;;18.86;63.86
50682;BME280;36779;52.168;20.878;2023-07-13T04:19:12;100069.82;;;19.22;63.91
50682;BME280;36779;52.168;20.878;2023-07-13T04:21:49;100075.55;;;19.78;64.12
50682;BME280;36779;52.168;20.878;2023-07-13T04:24:31;100084.70;;;20.20;63.95
50682;BME280;36779;52.168;20.878;2023-07-13T04:27:04;100089.34;;;20.37;63.31
50682;BME280;36779;52.168;20.878;2023-07-13T04:29:38;100098.42;;;20.50;63.36
50682;BME280;36779;52.168;20.878;2023-07-13T04:32:10;100096.50;;;20.64;63.25
50682;BME280;36779;52.168;20.878;2023-07-13T04:34:44;100094.86;;;20.70;62.98
50682;BME280;36779;52.168;20.878;2023-07-13T04:37:25;100093.84;;;20.68;62.71
50682;BME280;36779;52.168;20.878;2023-07-13T04:39:57;100094.42;;;20.58;62.49
50682;BME280;36779;52.168;20.878;2023-07-13T04:42:29;100101.25;;;20.48;62.47
50682;BME280;36779;52.168;20.878;2023-07-13T04:45:02;100108.21;;;20.39;62.39
50682;BME280;36779;52.168;20.878;2023-07-13T04:47:34;100114.81;;;20.30;62.28
50682;BME280;36779;52.168;20.878;2023-07-13T04:50:08;100111.60;;;20.26;62.38
50682;BME280;36779;52.168;20.878;2023-07-13T04:52:41;100105.96;;;20.24;62.40
50682;BME280;36779;52.168;20.878;2023-07-13T04:55:16;100104.52;;;20.23;62.53
50682;BME280;36779;52.168;20.878;2023-07-13T04:57:52;100109.46;;;20.24;62.53
50682;BME280;36779;52.168;20.878;2023-07-13T05:00:28;100109.01;;;20.29;62.57
50682;BME280;36779;52.168;20.878;2023-07-13T05:03:00;100109.90;;;20.38;62.77
50682;BME280;36779;52.168;20.878;2023-07-13T05:05:33;100117.20;;;20.49;62.91
50682;BME280;36779;52.168;20.878;2023-07-13T05:08:08;100125.04;;;20.57;62.87
50682;BME280;36779;52.168;20.878;2023-07-13T05:10:43;100125.55;;;20.56;62.75
50682;BME280;36779;52.168;20.878;2023-07-13T05:13:16;100129.96;;;20.54;62.82
50682;BME280;36779;52.168;20.878;2023-07-13T05:16:00;100130.35;;;20.57;62.82
50682;BME280;36779;52.168;20.878;2023-07-13T05:18:35;100132.70;;;20.64;62.88
50682;BME280;36779;52.168;20.878;2023-07-13T05:21:14;100139.32;;;20.67;62.81
50682;BME280;36779;52.168;20.878;2023-07-13T05:23:47;100140.21;;;20.66;62.75
50682;BME280;36779;52.168;20.878;2023-07-13T05:26:22;100145.84;;;20.66;62.85
50682;BME280;36779;52.168;20.878;2023-07-13T05:28:59;100154.89;;;20.70;62.83
50682;BME280;36779;52.168;20.878;2023-07-13T05:31:39;100155.04;;;20.81;62.99
50682;BME280;36779;52.168;20.878;2023-07-13T05:34:12;100160.17;;;20.95;62.95
50682;BME280;36779;52.168;20.878;2023-07-13T05:36:44;100160.48;;;21.06;62.90
50682;BME280;36779;52.168;20.878;2023-07-13T05:39:18;100157.45;;;21.30;63.32
50682;BME280;36779;52.168;20.878;2023-07-13T05:41:53;100151.52;;;21.66;63.44
50682;BME280;36779;52.168;20.878;2023-07-13T05:44:37;100155.50;;;22.23;63.98
50682;BME280;36779;52.168;20.878;2023-07-13T05:47:20;100157.37;;;22.76;63.14
50682;BME280;36779;52.168;20.878;2023-07-13T05:49:56;100162.16;;;22.92;62.58
50682;BME280;36779;52.168;20.878;2023-07-13T05:52:33;100158.94;;;22.99;62.13
50682;BME280;36779;52.168;20.878;2023-07-13T05:55:14;100161.69;;;22.96;61.84
50682;BME280;36779;52.168;20.878;2023-07-13T05:57:48;100156.35;;;22.96;61.88
50682;BME280;36779;52.168;20.878;2023-07-13T06:00:21;100148.52;;;23.00;61.98
50682;BME280;36779;52.168;20.878;2023-07-13T06:03:00;100142.83;;;23.04;62.05
50682;BME280;36779;52.168;20.878;2023-07-13T06:05:34;100142.53;;;23.09;61.83
50682;BME280;36779;52.168;20.878;2023-07-13T06:08:15;100141.80;;;23.16;62.03
50682;BME280;36779;52.168;20.878;2023-07-13T06:10:47;100139.54;;;23.22;61.87
50682;BME280;36779;52.168;20.878;2023-07-13T06:13:20;100138.18;;;23.22;61.72
50682;BME280;36779;52.168;20.878;2023-07-13T06:15:52;100145.88;;;23.24;61.82
50682;BME280;36779;52.168;20.878;2023-07-13T06:18:25;100143.07;;;23.34;61.90
50682;BME280;36779;52.168;20.878;2023-07-13T06:20:59;100141.44;;;23.47;61.86
50682;BME280;36779;52.168;20.878;2023-07-13T06:23:32;100136.77;;;23.84;62.57
50682;BME280;36779;52.168;20.878;2023-07-13T06:26:04;100137.13;;;24.36;62.47
50682;BME280;36779;52.168;20.878;2023-07-13T06:28:40;100137.23;;;24.53;61.86
50682;BME280;36779;52.168;20.878;2023-07-13T06:31:13;100135.17;;;24.55;61.46
50682;BME280;36779;52.168;20.878;2023-07-13T06:33:46;100137.90;;;24.61;61.33
50682;BME280;36779;52.168;20.878;2023-07-13T06:36:18;100136.67;;;24.58;61.06
50682;BME280;36779;52.168;20.878;2023-07-13T06:38:52;100139.38;;;24.54;60.86
50682;BME280;36779;52.168;20.878;2023-07-13T06:41:24;100138.48;;;24.50;60.77
50682;BME280;36779;52.168;20.878;2023-07-13T06:44:00;100135.16;;;24.51;60.74
50682;BME280;36779;52.168;20.878;2023-07-13T06:46:33;100132.50;;;24.53;60.69
50682;BME280;36779;52.168;20.878;2023-07-13T06:49:12;100130.53;;;24.52;60.58
50682;BME280;36779;52.168;20.878;2023-07-13T06:51:46;100137.45;;;24.60;60.61
50682;BME280;36779;52.168;20.878;2023-07-13T06:54:19;100134.63;;;24.60;60.41
50682;BME280;36779;52.168;20.878;2023-07-13T06:56:51;100133.84;;;24.58;60.34
50682;BME280;36779;52.168;20.878;2023-07-13T06:59:24;100132.77;;;24.58;60.14
50682;BME280;36779;52.168;20.878;2023-07-13T07:01:59;100132.86;;;24.57;60.00
50682;BME280;36779;52.168;20.878;2023-07-13T07:04:47;100129.65;;;24.58;60.14
50682;BME280;36779;52.168;20.878;2023-07-13T07:07:23;100124.21;;;24.60;59.97
50682;BME280;36779;52.168;20.878;2023-07-13T07:09:59;100120.34;;;24.67;60.01
50682;BME280;36779;52.168;20.878;2023-07-13T07:12:37;100119.52;;;24.75;59.74
50682;BME280;36779;52.168;20.878;2023-07-13T07:15:11;100121.55;;;24.94;59.76
50682;BME280;36779;52.168;20.878;2023-07-13T07:17:43;100122.74;;;25.11;59.43
50682;BME280;36779;52.168;20.878;2023-07-13T07:20:25;100130.64;;;25.16;58.98
50682;BME280;36779;52.168;20.878;2023-07-13T07:23:01;100133.04;;;25.14;58.62
50682;BME280;36779;52.168;20.878;2023-07-13T07:25:34;100139.16;;;25.17;58.44
50682;BME280;36779;52.168;20.878;2023-07-13T07:28:16;100145.64;;;25.26;58.26
50682;BME280;36779;52.168;20.878;2023-07-13T07:30:56;100141.85;;;25.31;58.03
50682;BME280;36779;52.168;20.878;2023-07-13T07:33:38;100139.83;;;25.30;57.79
50682;BME280;36779;52.168;20.878;2023-07-13T07:36:10;100136.77;;;25.26;57.73
50682;BME280;36779;52.168;20.878;2023-07-13T07:38:46;100139.28;;;25.29;57.63
50682;BME280;36779;52.168;20.878;2023-07-13T07:41:24;100138.89;;;25.36;57.65
50682;BME280;36779;52.168;20.878;2023-07-13T07:44:05;100136.61;;;25.43;57.48
50682;BME280;36779;52.168;20.878;2023-07-13T07:46:41;100137.80;;;25.40;57.32
50682;BME280;36779;52.168;20.878;2023-07-13T07:49:14;100134.11;;;25.44;57.31
50682;BME280;36779;52.168;20.878;2023-07-13T07:51:46;100133.80;;;25.47;57.14
50682;BME280;36779;52.168;20.878;2023-07-13T07:54:19;100138.23;;;25.50;56.96
50682;BME280;36779;52.168;20.878;2023-07-13T07:57:12;100144.41;;;25.54;56.81
50682;BME280;36779;52.168;20.878;2023-07-13T07:59:47;100143.36;;;25.51;56.68
50682;BME280;36779;52.168;20.878;2023-07-13T08:02:24;100146.01;;;25.57;56.65
50682;BME280;36779;52.168;20.878;2023-07-13T08:05:02;100142.21;;;25.63;56.41
50682;BME280;36779;52.168;20.878;2023-07-13T08:07:38;100142.36;;;25.60;56.22
50682;BME280;36779;52.168;20.878;2023-07-13T08:10:11;100143.13;;;25.62;56.11
50682;BME280;36779;52.168;20.878;2023-07-13T08:12:45;100137.70;;;25.67;55.99
50682;BME280;36779;52.168;20.878;2023-07-13T08:15:19;100135.77;;;25.66;55.78
50682;BME280;36779;52.168;20.878;2023-07-13T08:17:53;100137.01;;;25.73;55.81
50682;BME280;36779;52.168;20.878;2023-07-13T08:20:28;100129.89;;;25.84;55.62
50682;BME280;36779;52.168;20.878;2023-07-13T08:23:01;100128.18;;;25.90;55.60
50682;BME280;36779;52.168;20.878;2023-07-13T08:25:34;100123.34;;;26.00;55.56
50682;BME280;36779;52.168;20.878;2023-07-13T08:28:06;100120.51;;;26.08;55.28
50682;BME280;36779;52.168;20.878;2023-07-13T08:30:42;100125.71;;;26.23;55.34
50682;BME280;36779;52.168;20.878;2023-07-13T08:33:15;100126.64;;;26.38;55.17
50682;BME280;36779;52.168;20.878;2023-07-13T08:35:48;100124.15;;;26.48;55.21
50682;BME280;36779;52.168;20.878;2023-07-13T08:38:21;100125.36;;;26.57;55.00
50682;BME280;36779;52.168;20.878;2023-07-13T08:40:55;100130.49;;;26.65;55.04
50682;BME280;36779;52.168;20.878;2023-07-13T08:43:30;100129.55;;;26.79;54.89
50682;BME280;36779;52.168;20.878;2023-07-13T08:46:12;100133.17;;;26.95;54.73
50682;BME280;36779;52.168;20.878;2023-07-13T08:48:51;100132.88;;;27.10;54.75
50682;BME280;36779;52.168;20.878;2023-07-13T08:51:35;100131.55;;;27.23;54.54
50682;BME280;36779;52.168;20.878;2023-07-13T08:54:19;100137.82;;;27.29;54.30
50682;BME280;36779;52.168;20.878;2023-07-13T08:56:54;100143.73;;;27.42;54.40
50682;BME280;36779;52.168;20.878;2023-07-13T08:59:46;100147.71;;;27.59;54.23
50682;BME280;36779;52.168;20.878;2023-07-13T09:02:33;100148.13;;;27.75;54.21
50682;BME280;36779;52.168;20.878;2023-07-13T09:05:12;100150.69;;;27.93;53.97
50682;BME280;36779;52.168;20.878;2023-07-13T09:08:09;100146.89;;;27.97;53.71
50682;BME280;36779;52.168;20.878;2023-07-13T09:10:46;100144.20;;;28.13;53.71
50682;BME280;36779;52.168;20.878;2023-07-13T09:13:29;100142.59;;;28.30;53.57
50682;BME280;36779;52.168;20.878;2023-07-13T09:16:08;100141.54;;;28.42;53.28
50682;BME280;36779;52.168;20.878;2023-07-13T09:18:44;100139.91;;;28.47;52.90
50682;BME280;36779;52.168;20.878;2023-07-13T09:21:21;100142.75;;;28.50;52.87
50682;BME280;36779;52.168;20.878;2023-07-13T09:23:56;100136.79;;;28.54;52.76
50682;BME280;36779;52.168;20.878;2023-07-13T09:26:34;100136.14;;;28.45;52.42
50682;BME280;36779;52.168;20.878;2023-07-13T09:29:23;100133.77;;;28.29;52.34
50682;BME280;36779;52.168;20.878;2023-07-13T09:32:09;100127.69;;;28.24;52.40
50682;BME280;36779;52.168;20.878;2023-07-13T09:34:45;100124.42;;;28.25;52.28
50682;BME280;36779;52.168;20.878;2023-07-13T09:37:25;100123.84;;;28.24;52.24
50682;BME280;36779;52.168;20.878;2023-07-13T09:40:02;100117.05;;;28.36;52.32
50682;BME280;36779;52.168;20.878;2023-07-13T09:42:43;100112.63;;;28.52;52.40
50682;BME280;36779;52.168;20.878;2023-07-13T09:45:21;100109.55;;;28.74;52.47
50682;BME280;36779;52.168;20.878;2023-07-13T09:48:06;100102.04;;;29.02;52.44
50682;BME280;36779;52.168;20.878;2023-07-13T09:50:39;100093.11;;;29.25;52.06
50682;BME280;36779;52.168;20.878;2023-07-13T09:53:27;100091.20;;;29.37;51.91
50682;BME280;36779;52.168;20.878;2023-07-13T09:56:03;100084.85;;;29.35;51.26
50682;BME280;36779;52.168;20.878;2023-07-13T09:58:38;100079.19;;;29.27;51.15
50682;BME280;36779;52.168;20.878;2023-07-13T10:01:11;100076.67;;;29.18;51.00
50682;BME280;36779;52.168;20.878;2023-07-13T10:03:54;100083.34;;;29.11;50.80
50682;BME280;36779;52.168;20.878;2023-07-13T10:06:29;100084.85;;;28.77;50.00
50682;BME280;36779;52.168;20.878;2023-07-13T10:09:04;100081.40;;;28.21;49.75
50682;BME280;36779;52.168;20.878;2023-07-13T10:11:45;100077.84;;;27.60;49.57
50682;BME280;36779;52.168;20.878;2023-07-13T10:14:20;100076.52;;;27.08;49.59
50682;BME280;36779;52.168;20.878;2023-07-13T10:16:59;100078.55;;;26.69;49.69
50682;BME280;36779;52.168;20.878;2023-07-13T10:19:43;100079.20;;;26.36;49.66
50682;BME280;36779;52.168;20.878;2023-07-13T10:22:23;100080.69;;;26.09;49.75
50682;BME280;36779;52.168;20.878;2023-07-13T10:25:04;100078.95;;;25.82;49.80
50682;BME280;36779;52.168;20.878;2023-07-13T10:27:45;100071.98;;;25.54;49.90
50682;BME280;36779;52.168;20.878;2023-07-13T10:30:21;100082.29;;;25.32;49.90
50682;BME280;36779;52.168;20.878;2023-07-13T10:33:01;100093.79;;;25.11;49.78
50682;BME280;36779;52.168;20.878;2023-07-13T10:35:34;100103.98;;;24.84;49.86
50682;BME280;36779;52.168;20.878;2023-07-13T10:38:10;100115.84;;;24.48;49.74
50682;BME280;36779;52.168;20.878;2023-07-13T10:40:55;100133.95;;;24.12;49.79
50682;BME280;36779;52.168;20.878;2023-07-13T10:43:41;100145.42;;;23.61;49.89
50682;BME280;36779;52.168;20.878;2023-07-13T10:46:16;100158.15;;;23.05;49.99
50682;BME280;36779;52.168;20.878;2023-07-13T10:48:54;100165.79;;;22.28;50.05
50682;BME280;36779;52.168;20.878;2023-07-13T10:51:31;100184.33;;;21.57;50.55
50682;BME280;36779;52.168;20.878;2023-07-13T10:54:21;100187.19;;;21.06;51.01
50682;BME280;36779;52.168;20.878;2023-07-13T10:57:15;100186.41;;;20.64;51.65
50682;BME280;36779;52.168;20.878;2023-07-13T11:00:10;100187.25;;;20.34;52.08
50682;BME280;36779;52.168;20.878;2023-07-13T11:02:59;100192.45;;;20.12;52.49
50682;BME280;36779;52.168;20.878;2023-07-13T11:05:33;100194.61;;;19.94;52.76
50682;BME280;36779;52.168;20.878;2023-07-13T11:08:18;100188.44;;;19.78;53.21
50682;BME280;36779;52.168;20.878;2023-07-13T11:10:54;100188.55;;;19.65;53.39
50682;BME280;36779;52.168;20.878;2023-07-13T11:13:58;100192.11;;;19.54;53.52
50682;BME280;36779;52.168;20.878;2023-07-13T11:16:44;100191.48;;;19.42;53.93
50682;BME280;36779;52.168;20.878;2023-07-13T11:19:38;100190.25;;;19.34;54.12
50682;BME280;36779;52.168;20.878;2023-07-13T11:22:20;100190.38;;;19.27;54.36
50682;BME280;36779;52.168;20.878;2023-07-13T11:25:00;100186.90;;;19.21;54.58
50682;BME280;36779;52.168;20.878;2023-07-13T11:27:40;100191.02;;;19.16;54.70
50682;BME280;36779;52.168;20.878;2023-07-13T11:30:31;100201.48;;;19.14;54.95
50682;BME280;36779;52.168;20.878;2023-07-13T11:33:16;100209.59;;;19.14;55.16
50682;BME280;36779;52.168;20.878;2023-07-13T11:35:57;100225.73;;;19.15;55.49
50682;BME280;36779;52.168;20.878;2023-07-13T11:38:42;100246.23;;;19.19;55.54
50682;BME280;36779;52.168;20.878;2023-07-13T11:41:18;100245.25;;;19.17;55.48
50682;BME280;36779;52.168;20.878;2023-07-13T11:43:56;100253.52;;;19.16;55.60
50682;BME280;36779;52.168;20.878;2023-07-13T11:46:34;100258.16;;;19.15;55.89
50682;BME280;36779;52.168;20.878;2023-07-13T11:49:07;100261.28;;;19.10;55.80
50682;BME280;36779;52.168;20.878;2023-07-13T11:51:39;100268.45;;;19.06;55.97
50682;BME280;36779;52.168;20.878;2023-07-13T11:54:21;100273.09;;;19.04;56.13
50682;BME280;36779;52.168;20.878;2023-07-13T11:57:06;100273.67;;;19.02;56.28
50682;BME280;36779;52.168;20.878;2023-07-13T11:59:47;100270.73;;;19.07;56.49
50682;BME280;36779;52.168;20.878;2023-07-13T12:02:27;100265.73;;;19.14;56.70
50682;BME280;36779;52.168;20.878;2023-07-13T12:05:05;100261.38;;;19.18;56.61
50682;BME280;36779;52.168;20.878;2023-07-13T12:07:40;100257.59;;;19.18;56.79
50682;BME280;36779;52.168;20.878;2023-07-13T12:10:22;100255.23;;;19.17;56.86
50682;BME280;36779;52.168;20.878;2023-07-13T12:13:00;100253.60;;;19.19;56.92
50682;BME280;36779;52.168;20.878;2023-07-13T12:15:39;100253.79;;;19.20;57.00
50682;BME280;36779;52.168;20.878;2023-07-13T12:18:18;100246.07;;;19.23;57.20
50682;BME280;36779;52.168;20.878;2023-07-13T12:20:53;100239.48;;;19.28;57.27
50682;BME280;36779;52.168;20.878;2023-07-13T12:23:31;100243.15;;;19.38;57.46
50682;BME280;36779;52.168;20.878;2023-07-13T12:26:12;100239.19;;;19.41;57.48
50682;BME280;36779;52.168;20.878;2023-07-13T12:28:49;100236.98;;;19.45;57.52
50682;BME280;36779;52.168;20.878;2023-07-13T12:31:34;100234.77;;;19.48;57.63
50682;BME280;36779;52.168;20.878;2023-07-13T12:34:10;100226.85;;;19.49;57.63
50682;BME280;36779;52.168;20.878;2023-07-13T12:36:50;100228.35;;;19.48;57.58
50682;BME280;36779;52.168;20.878;2023-07-13T12:39:24;100227.40;;;19.47;57.77
50682;BME280;36779;52.168;20.878;2023-07-13T12:42:20;100225.14;;;19.53;57.86
50682;BME280;36779;52.168;20.878;2023-07-13T12:45:01;100222.59;;;19.58;58.11
50682;BME280;36779;52.168;20.878;2023-07-13T12:47:43;100221.80;;;19.58;58.23
50682;BME280;36779;52.168;20.878;2023-07-13T12:50:30;100216.66;;;19.66;58.31
50682;BME280;36779;52.168;20.878;2023-07-13T12:53:10;100211.00;;;19.70;58.40
50682;BME280;36779;52.168;20.878;2023-07-13T12:55:49;100213.63;;;19.70;58.35
50682;BME280;36779;52.168;20.878;2023-07-13T12:58:27;100215.66;;;19.70;58.58
50682;BME280;36779;52.168;20.878;2023-07-13T13:01:01;100206.04;;;19.82;58.76
50682;BME280;36779;52.168;20.878;2023-07-13T13:03:35;100210.73;;;19.92;58.76
50682;BME280;36779;52.168;20.878;2023-07-13T13:06:22;100212.45;;;19.99;58.84
50682;BME280;36779;52.168;20.878;2023-07-13T13:08:57;100215.86;;;20.13;59.09
50682;BME280;36779;52.168;20.878;2023-07-13T13:11:34;100217.73;;;20.28;59.28
50682;BME280;36779;52.168;20.878;2023-07-13T13:14:10;100216.94;;;20.38;59.04
50682;BME280;36779;52.168;20.878;2023-07-13T13:16:49;100215.91;;;20.40;59.11
50682;BME280;36779;52.168;20.878;2023-07-13T13:19:24;100220.91;;;20.46;59.05
50682;BME280;36779;52.168;20.878;2023-07-13T13:22:04;100222.39;;;20.50;59.27
50682;BME280;36779;52.168;20.878;2023-07-13T13:24:40;100221.61;;;20.61;59.33
50682;BME280;36779;52.168;20.878;2023-07-13T13:27:17;100227.23;;;20.65;59.16
50682;BME280;36779;52.168;20.878;2023-07-13T13:29:55;100231.10;;;20.70;59.38
50682;BME280;36779;52.168;20.878;2023-07-13T13:32:29;100235.06;;;20.75;59.39
50682;BME280;36779;52.168;20.878;2023-07-13T13:35:02;100239.47;;;20.81;59.55
50682;BME280;36779;52.168;20.878;2023-07-13T13:37:35;100240.48;;;20.88;59.63